sensor_id;sensor_type;location;lat;lon;timestamp;temperature;humidity
33739;DHT22;20063;51.730;11.110;2023-06-22T00:00:58;19.30;99.90
33739;DHT22;20063;51.730;11.110;2023-06-22T00:03:24;19.20;99.90
33739;DHT22;20063;51.730;11.110;2023-06-22T00:05:51;19.20;99.90
33739;DHT22;20063;51.730;11.110;2023-06-22T00:08:18;19.10;99.90
33739;DHT22;20063;51.730;11.110;2023-06-22T00:10:44;19.10;99.90
33739;DHT22;20063;51.730;11.110;2023-06-22T00:13:10;19.10;99.90
33739;DHT22;20063;51.730;11.110;2023-06-22T00:15:38;19.10;99.90
33739;DHT22;20063;51.730;11.110;2023-06-22T00:18:10;19.10;99.90
33739;DHT22;20063;51.730;11.110;2023-06-22T00:20:36;19.10;99.90
33739;DHT22;20063;51.730;11.110;2023-06-22T00:23:04;19.10;99.90
33739;DHT22;20063;51.730;11.110;2023-06-22T00:25:37;19.10;99.90
33739;DHT22;20063;51.730;11.110;2023-06-22T00:28:08;19.00;99.90
33739;DHT22;20063;51.730;11.110;2023-06-22T00:30:34;19.00;99.90
33739;DHT22;20063;51.730;11.110;2023-06-22T00:33:00;19.00;99.90
33739;DHT22;20063;51.730;11.110;2023-06-22T00:35:26;19.00;99.90
33739;DHT22;20063;51.730;11.110;2023-06-22T00:37:55;18.90;99.90
33739;DHT22;20063;51.730;11.110;2023-06-22T00:40:29;18.90;99.90
33739;DHT22;20063;51.730;11.110;2023-06-22T00:42:55;18.90;99.90
33739;DHT22;20063;51.730;11.110;2023-06-22T00:45:21;18.80;99.90
33739;DHT22;20063;51.730;11.110;2023-06-22T00:47:49;18.70;99.90
33739;DHT22;20063;51.730;11.110;2023-06-22T00:50:20;18.70;99.90
33739;DHT22;20063;51.730;11.110;2023-06-22T00:53:06;18.70;99.90
33739;DHT22;20063;51.730;11.110;2023-06-22T00:58:08;18.60;99.90
33739;DHT22;20063;51.730;11.110;2023-06-22T01:00:35;18.60;99.90
33739;DHT22;20063;51.730;11.110;2023-06-22T01:03:01;18.60;99.90
33739;DHT22;20063;51.730;11.110;2023-06-22T01:05:27;18.70;99.90
33739;DHT22;20063;51.730;11.110;2023-06-22T01:08:23;18.70;99.90
33739;DHT22;20063;51.730;11.110;2023-06-22T01:11:08;18.70;99.90
33739;DHT22;20063;51.730;11.110;2023-06-22T01:16:44;18.90;99.90
33739;DHT22;20063;51.730;11.110;2023-06-22T01:19:33;18.80;99.90
33739;DHT22;20063;51.730;11.110;2023-06-22T01:22:00;18.80;99.90
33739;DHT22;20063;51.730;11.110;2023-06-22T01:24:32;18.80;99.90
33739;DHT22;20063;51.730;11.110;2023-06-22T01:29:36;18.70;99.90
33739;DHT22;20063;51.730;11.110;2023-06-22T01:32:04;18.70;99.90
33739;DHT22;20063;51.730;11.110;2023-06-22T01:34:32;18.60;99.90
33739;DHT22;20063;51.730;11.110;2023-06-22T01:36:59;18.60;99.90
33739;DHT22;20063;51.730;11.110;2023-06-22T01:39:25;18.60;99.90
33739;DHT22;20063;51.730;11.110;2023-06-22T01:41:52;18.60;99.90
33739;DHT22;20063;51.730;11.110;2023-06-22T01:44:20;18.50;99.90
33739;DHT22;20063;51.730;11.110;2023-06-22T01:46:48;18.50;99.90
33739;DHT22;20063;51.730;11.110;2023-06-22T01:49:15;18.40;99.90
33739;DHT22;20063;51.730;11.110;2023-06-22T01:51:41;18.40;99.90
33739;DHT22;20063;51.730;11.110;2023-06-22T01:54:07;18.40;99.90
33739;DHT22;20063;51.730;11.110;2023-06-22T01:56:33;18.40;99.90
33739;DHT22;20063;51.730;11.110;2023-06-22T01:59:17;18.40;99.90
33739;DHT22;20063;51.730;11.110;2023-06-22T02:01:48;18.40;99.90
33739;DHT22;20063;51.730;11.110;2023-06-22T02:04:22;18.40;99.90
33739;DHT22;20063;51.730;11.110;2023-06-22T02:06:51;18.40;99.90
33739;DHT22;20063;51.730;11.110;2023-06-22T02:09:20;18.40;99.90
33739;DHT22;20063;51.730;11.110;2023-06-22T02:11:47;18.40;99.90
33739;DHT22;20063;51.730;11.110;2023-06-22T02:14:17;18.40;99.90
33739;DHT22;20063;51.730;11.110;2023-06-22T02:16:43;18.40;99.90
33739;DHT22;20063;51.730;11.110;2023-06-22T02:19:09;18.40;99.90
33739;DHT22;20063;51.730;11.110;2023-06-22T02:21:35;18.40;99.90
33739;DHT22;20063;51.730;11.110;2023-06-22T02:24:00;18.40;99.90
33739;DHT22;20063;51.730;11.110;2023-06-22T02:26:26;18.30;99.90
33739;DHT22;20063;51.730;11.110;2023-06-22T02:28:52;18.30;99.90
33739;DHT22;20063;51.730;11.110;2023-06-22T02:31:19;18.30;99.90
33739;DHT22;20063;51.730;11.110;2023-06-22T02:33:45;18.30;99.90
33739;DHT22;20063;51.730;11.110;2023-06-22T02:36:11;18.20;99.90
33739;DHT22;20063;51.730;11.110;2023-06-22T02:38:41;18.20;99.90
33739;DHT22;20063;51.730;11.110;2023-06-22T02:41:14;18.20;99.90
33739;DHT22;20063;51.730;11.110;2023-06-22T02:43:46;18.20;99.90
33739;DHT22;20063;51.730;11.110;2023-06-22T02:46:13;18.20;99.90
33739;DHT22;20063;51.730;11.110;2023-06-22T02:48:42;18.10;99.90
33739;DHT22;20063;51.730;11.110;2023-06-22T02:51:13;18.10;99.90
33739;DHT22;20063;51.730;11.110;2023-06-22T02:53:40;18.10;99.90
33739;DHT22;20063;51.730;11.110;2023-06-22T02:56:15;18.10;99.90
33739;DHT22;20063;51.730;11.110;2023-06-22T02:58:42;18.10;99.90
33739;DHT22;20063;51.730;11.110;2023-06-22T03:01:08;18.20;99.90
33739;DHT22;20063;51.730;11.110;2023-06-22T03:03:35;18.10;99.90
33739;DHT22;20063;51.730;11.110;2023-06-22T03:06:00;18.20;99.90
33739;DHT22;20063;51.730;11.110;2023-06-22T03:08:26;18.20;99.90
33739;DHT22;20063;51.730;11.110;2023-06-22T03:10:52;18.20;99.90
33739;DHT22;20063;51.730;11.110;2023-06-22T03:13:17;18.20;99.90
33739;DHT22;20063;51.730;11.110;2023-06-22T03:15:43;18.20;99.90
33739;DHT22;20063;51.730;11.110;2023-06-22T03:18:08;18.20;99.90
33739;DHT22;20063;51.730;11.110;2023-06-22T03:20:34;18.20;99.90
33739;DHT22;20063;51.730;11.110;2023-06-22T03:22:59;18.20;99.90
33739;DHT22;20063;51.730;11.110;2023-06-22T03:25:25;18.20;99.90
33739;DHT22;20063;51.730;11.110;2023-06-22T03:27:51;18.20;99.90
33739;DHT22;20063;51.730;11.110;2023-06-22T03:30:16;18.30;99.90
33739;DHT22;20063;51.730;11.110;2023-06-22T03:32:43;18.30;99.90
33739;DHT22;20063;51.730;11.110;2023-06-22T03:35:09;18.30;99.90
33739;DHT22;20063;51.730;11.110;2023-06-22T03:37:38;18.30;99.90
33739;DHT22;20063;51.730;11.110;2023-06-22T03:40:04;18.30;99.90
33739;DHT22;20063;51.730;11.110;2023-06-22T03:42:30;18.30;99.90
33739;DHT22;20063;51.730;11.110;2023-06-22T03:44:56;18.40;99.90
33739;DHT22;20063;51.730;11.110;2023-06-22T03:47:22;18.40;99.90
33739;DHT22;20063;51.730;11.110;2023-06-22T03:49:47;18.50;99.90
33739;DHT22;20063;51.730;11.110;2023-06-22T03:52:13;18.50;99.90
33739;DHT22;20063;51.730;11.110;2023-06-22T03:54:39;18.50;99.90
33739;DHT22;20063;51.730;11.110;2023-06-22T03:57:04;18.60;99.90
33739;DHT22;20063;51.730;11.110;2023-06-22T03:59:30;18.60;99.90
33739;DHT22;20063;51.730;11.110;2023-06-22T04:01:56;18.60;99.90
33739;DHT22;20063;51.730;11.110;2023-06-22T04:04:21;18.60;99.90
33739;DHT22;20063;51.730;11.110;2023-06-22T04:06:47;18.60;99.90
33739;DHT22;20063;51.730;11.110;2023-06-22T04:09:13;18.60;99.90
33739;DHT22;20063;51.730;11.110;2023-06-22T04:11:39;18.60;99.90
33739;DHT22;20063;51.730;11.110;2023-06-22T04:14:05;18.60;99.90
33739;DHT22;20063;51.730;11.110;2023-06-22T04:16:30;18.60;99.90
33739;DHT22;20063;51.730;11.110;2023-06-22T04:18:56;18.70;99.90
33739;DHT22;20063;51.730;11.110;2023-06-22T04:21:21;18.70;99.90
33739;DHT22;20063;51.730;11.110;2023-06-22T04:23:48;18.70;99.90
33739;DHT22;20063;51.730;11.110;2023-06-22T04:26:14;18.70;99.90
33739;DHT22;20063;51.730;11.110;2023-06-22T04:28:40;18.80;99.90
33739;DHT22;20063;51.730;11.110;2023-06-22T04:31:06;18.80;99.90
33739;DHT22;20063;51.730;11.110;2023-06-22T04:33:31;18.80;99.90
33739;DHT22;20063;51.730;11.110;2023-06-22T04:35:58;18.90;99.90
33739;DHT22;20063;51.730;11.110;2023-06-22T04:38:26;18.90;99.90
33739;DHT22;20063;51.730;11.110;2023-06-22T04:40:52;18.90;99.90
33739;DHT22;20063;51.730;11.110;2023-06-22T04:43:19;18.90;99.90
33739;DHT22;20063;51.730;11.110;2023-06-22T04:45:44;19.00;99.90
33739;DHT22;20063;51.730;11.110;2023-06-22T04:48:10;19.10;99.90
33739;DHT22;20063;51.730;11.110;2023-06-22T04:50:41;19.00;99.90
33739;DHT22;20063;51.730;11.110;2023-06-22T04:53:07;19.00;99.90
33739;DHT22;20063;51.730;11.110;2023-06-22T04:55:35;19.10;99.90
33739;DHT22;20063;51.730;11.110;2023-06-22T04:58:03;19.10;99.90
33739;DHT22;20063;51.730;11.110;2023-06-22T05:00:30;19.20;99.90
33739;DHT22;20063;51.730;11.110;2023-06-22T05:02:55;19.20;99.90
33739;DHT22;20063;51.730;11.110;2023-06-22T05:05:23;19.20;99.90
33739;DHT22;20063;51.730;11.110;2023-06-22T05:07:51;19.20;99.90
33739;DHT22;20063;51.730;11.110;2023-06-22T05:10:19;19.30;99.90
33739;DHT22;20063;51.730;11.110;2023-06-22T05:12:48;19.30;99.90
33739;DHT22;20063;51.730;11.110;2023-06-22T05:15:13;19.30;99.90
33739;DHT22;20063;51.730;11.110;2023-06-22T05:17:40;19.40;99.90
33739;DHT22;20063;51.730;11.110;2023-06-22T05:20:10;19.40;99.90
33739;DHT22;20063;51.730;11.110;2023-06-22T05:22:38;19.50;99.90
33739;DHT22;20063;51.730;11.110;2023-06-22T05:25:07;19.50;99.90
33739;DHT22;20063;51.730;11.110;2023-06-22T05:27:33;19.60;99.90
33739;DHT22;20063;51.730;11.110;2023-06-22T05:29:59;19.60;99.90
33739;DHT22;20063;51.730;11.110;2023-06-22T05:32:24;19.60;99.90
33739;DHT22;20063;51.730;11.110;2023-06-22T05:34:50;19.60;99.90
33739;DHT22;20063;51.730;11.110;2023-06-22T05:37:18;19.60;99.90
33739;DHT22;20063;51.730;11.110;2023-06-22T05:39:44;19.70;99.90
33739;DHT22;20063;51.730;11.110;2023-06-22T05:42:18;19.70;99.90
33739;DHT22;20063;51.730;11.110;2023-06-22T05:44:44;19.70;99.90
33739;DHT22;20063;51.730;11.110;2023-06-22T05:47:09;19.70;99.90
33739;DHT22;20063;51.730;11.110;2023-06-22T05:49:35;19.80;99.90
33739;DHT22;20063;51.730;11.110;2023-06-22T05:52:00;19.80;99.90
33739;DHT22;20063;51.730;11.110;2023-06-22T05:54:28;19.80;99.90
33739;DHT22;20063;51.730;11.110;2023-06-22T05:56:53;19.80;99.90
33739;DHT22;20063;51.730;11.110;2023-06-22T05:59:19;19.80;99.90
33739;DHT22;20063;51.730;11.110;2023-06-22T06:01:45;19.80;99.90
33739;DHT22;20063;51.730;11.110;2023-06-22T06:04:18;19.90;99.90
33739;DHT22;20063;51.730;11.110;2023-06-22T06:06:44;19.80;99.90
33739;DHT22;20063;51.730;11.110;2023-06-22T06:09:10;19.90;99.90
33739;DHT22;20063;51.730;11.110;2023-06-22T06:11:37;19.90;99.90
33739;DHT22;20063;51.730;11.110;2023-06-22T06:14:02;20.00;99.90
33739;DHT22;20063;51.730;11.110;2023-06-22T06:16:28;20.00;99.90
33739;DHT22;20063;51.730;11.110;2023-06-22T06:18:54;20.00;99.90
33739;DHT22;20063;51.730;11.110;2023-06-22T06:21:21;20.00;99.90
33739;DHT22;20063;51.730;11.110;2023-06-22T06:23:47;20.00;99.90
33739;DHT22;20063;51.730;11.110;2023-06-22T06:26:12;20.10;99.90
33739;DHT22;20063;51.730;11.110;2023-06-22T06:28:41;20.10;99.90
33739;DHT22;20063;51.730;11.110;2023-06-22T06:31:06;20.10;99.90
33739;DHT22;20063;51.730;11.110;2023-06-22T06:33:34;20.10;99.90
33739;DHT22;20063;51.730;11.110;2023-06-22T06:35:59;20.10;99.90
33739;DHT22;20063;51.730;11.110;2023-06-22T06:38:27;20.10;99.90
33739;DHT22;20063;51.730;11.110;2023-06-22T06:40:53;20.10;99.90
33739;DHT22;20063;51.730;11.110;2023-06-22T06:43:18;20.10;99.90
33739;DHT22;20063;51.730;11.110;2023-06-22T06:45:44;20.10;99.90
33739;DHT22;20063;51.730;11.110;2023-06-22T06:48:09;20.20;99.90
33739;DHT22;20063;51.730;11.110;2023-06-22T06:50:35;20.20;99.90
33739;DHT22;20063;51.730;11.110;2023-06-22T06:53:01;20.20;99.90
33739;DHT22;20063;51.730;11.110;2023-06-22T06:55:27;20.20;99.90
33739;DHT22;20063;51.730;11.110;2023-06-22T06:57:54;20.30;99.90
33739;DHT22;20063;51.730;11.110;2023-06-22T07:00:22;20.30;99.90
33739;DHT22;20063;51.730;11.110;2023-06-22T07:02:47;20.30;99.90
33739;DHT22;20063;51.730;11.110;2023-06-22T07:05:14;20.30;99.90
33739;DHT22;20063;51.730;11.110;2023-06-22T07:07:40;20.30;99.90
33739;DHT22;20063;51.730;11.110;2023-06-22T07:10:07;20.30;99.90
33739;DHT22;20063;51.730;11.110;2023-06-22T07:12:33;20.40;99.90
33739;DHT22;20063;51.730;11.110;2023-06-22T07:15:06;20.50;99.90
33739;DHT22;20063;51.730;11.110;2023-06-22T07:17:38;20.50;99.90
33739;DHT22;20063;51.730;11.110;2023-06-22T07:20:07;20.50;99.90
33739;DHT22;20063;51.730;11.110;2023-06-22T07:22:39;20.60;99.90
33739;DHT22;20063;51.730;11.110;2023-06-22T07:25:05;20.60;99.90
33739;DHT22;20063;51.730;11.110;2023-06-22T07:27:38;20.70;99.90
33739;DHT22;20063;51.730;11.110;2023-06-22T07:30:05;20.70;99.90
33739;DHT22;20063;51.730;11.110;2023-06-22T07:32:32;20.70;99.90
33739;DHT22;20063;51.730;11.110;2023-06-22T07:34:58;20.70;99.90
33739;DHT22;20063;51.730;11.110;2023-06-22T07:37:27;20.80;99.90
33739;DHT22;20063;51.730;11.110;2023-06-22T07:39:53;20.80;99.90
33739;DHT22;20063;51.730;11.110;2023-06-22T07:42:25;20.80;99.90
33739;DHT22;20063;51.730;11.110;2023-06-22T07:44:51;20.80;99.90
33739;DHT22;20063;51.730;11.110;2023-06-22T07:47:22;20.80;99.90
33739;DHT22;20063;51.730;11.110;2023-06-22T07:49:51;20.90;99.90
33739;DHT22;20063;51.730;11.110;2023-06-22T07:52:24;20.90;99.90
33739;DHT22;20063;51.730;11.110;2023-06-22T07:54:50;20.90;99.90
33739;DHT22;20063;51.730;11.110;2023-06-22T07:57:15;20.90;99.90
33739;DHT22;20063;51.730;11.110;2023-06-22T07:59:41;21.00;99.90
33739;DHT22;20063;51.730;11.110;2023-06-22T08:02:06;21.00;99.90
33739;DHT22;20063;51.730;11.110;2023-06-22T08:04:34;21.00;99.90
33739;DHT22;20063;51.730;11.110;2023-06-22T08:07:00;21.00;99.90
33739;DHT22;20063;51.730;11.110;2023-06-22T08:09:28;21.10;99.90
33739;DHT22;20063;51.730;11.110;2023-06-22T08:11:54;21.10;99.90
33739;DHT22;20063;51.730;11.110;2023-06-22T08:14:23;21.20;99.90
33739;DHT22;20063;51.730;11.110;2023-06-22T08:16:49;21.20;99.90
33739;DHT22;20063;51.730;11.110;2023-06-22T08:19:21;21.20;99.90
33739;DHT22;20063;51.730;11.110;2023-06-22T08:21:46;21.30;99.90
33739;DHT22;20063;51.730;11.110;2023-06-22T08:24:12;21.30;99.90
33739;DHT22;20063;51.730;11.110;2023-06-22T08:26:38;21.40;99.90
33739;DHT22;20063;51.730;11.110;2023-06-22T08:29:04;21.50;99.90
33739;DHT22;20063;51.730;11.110;2023-06-22T08:31:30;21.60;99.90
33739;DHT22;20063;51.730;11.110;2023-06-22T08:33:58;21.70;99.90
33739;DHT22;20063;51.730;11.110;2023-06-22T08:36:24;21.80;99.90
33739;DHT22;20063;51.730;11.110;2023-06-22T08:38:49;21.80;99.90
33739;DHT22;20063;51.730;11.110;2023-06-22T08:41:17;21.90;99.90
33739;DHT22;20063;51.730;11.110;2023-06-22T08:43:43;21.90;99.90
33739;DHT22;20063;51.730;11.110;2023-06-22T08:46:09;22.10;99.90
33739;DHT22;20063;51.730;11.110;2023-06-22T08:48:39;22.20;99.90
33739;DHT22;20063;51.730;11.110;2023-06-22T08:51:04;22.30;99.90
33739;DHT22;20063;51.730;11.110;2023-06-22T08:53:30;22.40;99.90
33739;DHT22;20063;51.730;11.110;2023-06-22T08:55:55;22.40;99.90
33739;DHT22;20063;51.730;11.110;2023-06-22T08:58:27;22.40;99.90
33739;DHT22;20063;51.730;11.110;2023-06-22T09:00:53;22.40;99.90
33739;DHT22;20063;51.730;11.110;2023-06-22T09:03:22;22.50;99.90
33739;DHT22;20063;51.730;11.110;2023-06-22T09:05:52;22.50;99.90
33739;DHT22;20063;51.730;11.110;2023-06-22T09:08:24;22.50;99.90
33739;DHT22;20063;51.730;11.110;2023-06-22T09:10:49;22.50;99.90
33739;DHT22;20063;51.730;11.110;2023-06-22T09:13:15;22.60;99.90
33739;DHT22;20063;51.730;11.110;2023-06-22T09:15:41;22.50;99.90
33739;DHT22;20063;51.730;11.110;2023-06-22T09:18:06;22.60;99.90
33739;DHT22;20063;51.730;11.110;2023-06-22T09:20:32;22.60;99.90
33739;DHT22;20063;51.730;11.110;2023-06-22T09:22:58;22.70;99.90
33739;DHT22;20063;51.730;11.110;2023-06-22T09:25:24;22.90;99.90
33739;DHT22;20063;51.730;11.110;2023-06-22T09:27:49;23.00;99.90
33739;DHT22;20063;51.730;11.110;2023-06-22T09:30:15;23.20;99.90
33739;DHT22;20063;51.730;11.110;2023-06-22T09:32:40;23.30;99.90
33739;DHT22;20063;51.730;11.110;2023-06-22T09:35:06;23.40;99.90
33739;DHT22;20063;51.730;11.110;2023-06-22T09:37:34;23.50;99.90
33739;DHT22;20063;51.730;11.110;2023-06-22T09:43:02;23.70;99.90
33739;DHT22;20063;51.730;11.110;2023-06-22T09:45:31;23.80;99.90
33739;DHT22;20063;51.730;11.110;2023-06-22T09:47:56;23.90;99.90
33739;DHT22;20063;51.730;11.110;2023-06-22T09:50:22;23.90;99.90
33739;DHT22;20063;51.730;11.110;2023-06-22T09:52:47;23.90;99.90
33739;DHT22;20063;51.730;11.110;2023-06-22T09:55:16;23.90;99.90
33739;DHT22;20063;51.730;11.110;2023-06-22T09:57:42;23.90;99.90
33739;DHT22;20063;51.730;11.110;2023-06-22T10:00:09;23.90;99.90
33739;DHT22;20063;51.730;11.110;2023-06-22T10:02:36;23.90;99.90
33739;DHT22;20063;51.730;11.110;2023-06-22T10:05:02;24.00;99.90
33739;DHT22;20063;51.730;11.110;2023-06-22T10:07:28;24.00;99.90
33739;DHT22;20063;51.730;11.110;2023-06-22T10:09:53;24.10;99.90
33739;DHT22;20063;51.730;11.110;2023-06-22T10:12:19;24.10;99.90
33739;DHT22;20063;51.730;11.110;2023-06-22T10:14:44;24.20;99.90
33739;DHT22;20063;51.730;11.110;2023-06-22T10:17:10;24.20;99.90
33739;DHT22;20063;51.730;11.110;2023-06-22T10:19:35;24.20;99.90
33739;DHT22;20063;51.730;11.110;2023-06-22T10:22:03;24.30;99.90
33739;DHT22;20063;51.730;11.110;2023-06-22T10:24:29;24.40;99.90
33739;DHT22;20063;51.730;11.110;2023-06-22T10:26:54;24.40;99.90
33739;DHT22;20063;51.730;11.110;2023-06-22T10:29:20;24.50;99.90
33739;DHT22;20063;51.730;11.110;2023-06-22T10:31:46;24.50;99.90
33739;DHT22;20063;51.730;11.110;2023-06-22T10:34:11;24.50;99.90
33739;DHT22;20063;51.730;11.110;2023-06-22T10:36:37;24.60;99.90
33739;DHT22;20063;51.730;11.110;2023-06-22T10:39:06;24.80;99.90
33739;DHT22;20063;51.730;11.110;2023-06-22T10:41:31;24.80;99.90
33739;DHT22;20063;51.730;11.110;2023-06-22T10:43:58;24.80;99.90
33739;DHT22;20063;51.730;11.110;2023-06-22T10:46:25;24.80;99.90
33739;DHT22;20063;51.730;11.110;2023-06-22T10:48:53;24.80;99.90
33739;DHT22;20063;51.730;11.110;2023-06-22T10:51:30;24.70;99.90
33739;DHT22;20063;51.730;11.110;2023-06-22T10:53:56;24.70;99.90
33739;DHT22;20063;51.730;11.110;2023-06-22T10:56:22;24.70;99.90
33739;DHT22;20063;51.730;11.110;2023-06-22T10:58:49;24.70;99.90
33739;DHT22;20063;51.730;11.110;2023-06-22T11:01:15;24.70;99.90
33739;DHT22;20063;51.730;11.110;2023-06-22T11:03:40;24.60;99.90
33739;DHT22;20063;51.730;11.110;2023-06-22T11:06:06;24.60;99.90
33739;DHT22;20063;51.730;11.110;2023-06-22T11:08:32;24.70;99.90
33739;DHT22;20063;51.730;11.110;2023-06-22T11:10:57;24.80;99.90
33739;DHT22;20063;51.730;11.110;2023-06-22T11:13:24;24.90;99.90
33739;DHT22;20063;51.730;11.110;2023-06-22T11:15:50;25.10;99.90
33739;DHT22;20063;51.730;11.110;2023-06-22T11:18:16;25.20;99.90
33739;DHT22;20063;51.730;11.110;2023-06-22T11:20:42;25.20;99.90
33739;DHT22;20063;51.730;11.110;2023-06-22T11:23:07;25.30;99.90
33739;DHT22;20063;51.730;11.110;2023-06-22T11:25:33;25.30;99.90
33739;DHT22;20063;51.730;11.110;2023-06-22T11:28:09;25.30;99.90
33739;DHT22;20063;51.730;11.110;2023-06-22T11:30:39;25.40;99.90
33739;DHT22;20063;51.730;11.110;2023-06-22T11:33:04;25.40;99.90
33739;DHT22;20063;51.730;11.110;2023-06-22T11:35:30;25.50;99.90
33739;DHT22;20063;51.730;11.110;2023-06-22T11:37:55;25.50;99.90
33739;DHT22;20063;51.730;11.110;2023-06-22T11:40:24;25.70;99.90
33739;DHT22;20063;51.730;11.110;2023-06-22T11:42:50;25.80;99.90
33739;DHT22;20063;51.730;11.110;2023-06-22T11:45:15;25.80;99.90
33739;DHT22;20063;51.730;11.110;2023-06-22T11:47:42;25.80;99.90
33739;DHT22;20063;51.730;11.110;2023-06-22T11:50:08;25.80;99.90
33739;DHT22;20063;51.730;11.110;2023-06-22T11:52:34;25.70;99.90
33739;DHT22;20063;51.730;11.110;2023-06-22T11:55:01;25.70;99.90
33739;DHT22;20063;51.730;11.110;2023-06-22T11:57:36;25.60;99.90
33739;DHT22;20063;51.730;11.110;2023-06-22T12:00:05;25.60;99.90
33739;DHT22;20063;51.730;11.110;2023-06-22T12:02:41;25.60;99.90
33739;DHT22;20063;51.730;11.110;2023-06-22T12:05:07;25.60;99.90
33739;DHT22;20063;51.730;11.110;2023-06-22T12:07:33;25.60;99.90
33739;DHT22;20063;51.730;11.110;2023-06-22T12:09:59;25.60;99.90
33739;DHT22;20063;51.730;11.110;2023-06-22T12:12:24;25.60;99.90
33739;DHT22;20063;51.730;11.110;2023-06-22T12:14:50;25.70;99.90
33739;DHT22;20063;51.730;11.110;2023-06-22T12:17:15;25.80;99.90
33739;DHT22;20063;51.730;11.110;2023-06-22T12:19:41;25.80;99.90
33739;DHT22;20063;51.730;11.110;2023-06-22T12:22:06;25.90;99.90
33739;DHT22;20063;51.730;11.110;2023-06-22T12:24:32;26.00;99.90
33739;DHT22;20063;51.730;11.110;2023-06-22T12:26:59;26.00;99.90
33739;DHT22;20063;51.730;11.110;2023-06-22T12:29:24;26.00;99.90
33739;DHT22;20063;51.730;11.110;2023-06-22T12:31:50;26.00;99.90
33739;DHT22;20063;51.730;11.110;2023-06-22T12:34:16;26.00;99.90
33739;DHT22;20063;51.730;11.110;2023-06-22T12:36:41;26.10;99.90
33739;DHT22;20063;51.730;11.110;2023-06-22T12:39:07;26.10;99.90
33739;DHT22;20063;51.730;11.110;2023-06-22T12:41:38;26.00;99.90
33739;DHT22;20063;51.730;11.110;2023-06-22T12:44:04;26.00;99.90
33739;DHT22;20063;51.730;11.110;2023-06-22T12:46:30;26.00;99.90
33739;DHT22;20063;51.730;11.110;2023-06-22T12:49:02;26.10;99.90
33739;DHT22;20063;51.730;11.110;2023-06-22T12:51:27;26.10;99.90
33739;DHT22;20063;51.730;11.110;2023-06-22T12:53:54;26.10;99.90
33739;DHT22;20063;51.730;11.110;2023-06-22T12:56:19;26.10;99.90
33739;DHT22;20063;51.730;11.110;2023-06-22T12:58:47;26.10;99.90
33739;DHT22;20063;51.730;11.110;2023-06-22T13:01:13;26.10;99.90
33739;DHT22;20063;51.730;11.110;2023-06-22T13:03:38;26.10;99.90
33739;DHT22;20063;51.730;11.110;2023-06-22T13:06:04;26.10;99.90
33739;DHT22;20063;51.730;11.110;2023-06-22T13:08:30;26.20;99.90
33739;DHT22;20063;51.730;11.110;2023-06-22T13:10:55;26.20;99.90
33739;DHT22;20063;51.730;11.110;2023-06-22T13:13:26;26.30;99.90
33739;DHT22;20063;51.730;11.110;2023-06-22T13:15:59;26.30;99.90
33739;DHT22;20063;51.730;11.110;2023-06-22T13:18:30;26.30;99.90
33739;DHT22;20063;51.730;11.110;2023-06-22T13:20:56;26.40;99.90
33739;DHT22;20063;51.730;11.110;2023-06-22T13:23:26;26.40;99.90
33739;DHT22;20063;51.730;11.110;2023-06-22T13:25:51;26.40;99.90
33739;DHT22;20063;51.730;11.110;2023-06-22T13:28:19;26.40;99.90
33739;DHT22;20063;51.730;11.110;2023-06-22T13:30:47;26.40;99.90
33739;DHT22;20063;51.730;11.110;2023-06-22T13:33:13;26.40;99.90
33739;DHT22;20063;51.730;11.110;2023-06-22T13:35:39;26.50;99.90
33739;DHT22;20063;51.730;11.110;2023-06-22T13:38:08;26.60;99.90
33739;DHT22;20063;51.730;11.110;2023-06-22T13:40:35;26.70;99.90
33739;DHT22;20063;51.730;11.110;2023-06-22T13:43:01;26.70;99.90
33739;DHT22;20063;51.730;11.110;2023-06-22T13:45:26;26.80;99.90
33739;DHT22;20063;51.730;11.110;2023-06-22T13:47:52;26.80;99.90
33739;DHT22;20063;51.730;11.110;2023-06-22T13:50:19;26.70;99.90
33739;DHT22;20063;51.730;11.110;2023-06-22T13:52:44;26.70;99.90
33739;DHT22;20063;51.730;11.110;2023-06-22T13:55:10;26.70;99.90
33739;DHT22;20063;51.730;11.110;2023-06-22T13:57:35;26.70;99.90
33739;DHT22;20063;51.730;11.110;2023-06-22T14:00:02;26.60;99.90
33739;DHT22;20063;51.730;11.110;2023-06-22T14:02:30;26.60;99.90
33739;DHT22;20063;51.730;11.110;2023-06-22T14:04:56;26.50;99.90
33739;DHT22;20063;51.730;11.110;2023-06-22T14:07:21;26.50;99.90
33739;DHT22;20063;51.730;11.110;2023-06-22T14:09:47;26.60;99.90
33739;DHT22;20063;51.730;11.110;2023-06-22T14:12:13;26.60;99.90
33739;DHT22;20063;51.730;11.110;2023-06-22T14:14:38;26.60;99.90
33739;DHT22;20063;51.730;11.110;2023-06-22T14:17:05;26.70;99.90
33739;DHT22;20063;51.730;11.110;2023-06-22T14:19:33;26.70;99.90
33739;DHT22;20063;51.730;11.110;2023-06-22T14:22:03;26.80;99.90
33739;DHT22;20063;51.730;11.110;2023-06-22T14:24:32;26.90;99.90
33739;DHT22;20063;51.730;11.110;2023-06-22T14:26:57;27.10;99.90
33739;DHT22;20063;51.730;11.110;2023-06-22T14:29:25;27.20;99.90
33739;DHT22;20063;51.730;11.110;2023-06-22T14:31:50;27.20;99.90
33739;DHT22;20063;51.730;11.110;2023-06-22T14:34:16;27.20;99.90
33739;DHT22;20063;51.730;11.110;2023-06-22T14:36:42;27.20;99.90
33739;DHT22;20063;51.730;11.110;2023-06-22T14:39:08;27.20;99.90
33739;DHT22;20063;51.730;11.110;2023-06-22T14:41:37;27.20;99.90
33739;DHT22;20063;51.730;11.110;2023-06-22T14:44:02;27.10;99.90
33739;DHT22;20063;51.730;11.110;2023-06-22T14:46:28;27.00;99.90
33739;DHT22;20063;51.730;11.110;2023-06-22T14:48:53;26.90;99.90
33739;DHT22;20063;51.730;11.110;2023-06-22T14:51:20;26.90;99.90
33739;DHT22;20063;51.730;11.110;2023-06-22T14:53:46;26.90;99.90
33739;DHT22;20063;51.730;11.110;2023-06-22T14:56:11;26.80;99.90
33739;DHT22;20063;51.730;11.110;2023-06-22T14:58:41;26.80;99.90
33739;DHT22;20063;51.730;11.110;2023-06-22T15:01:11;26.80;99.90
33739;DHT22;20063;51.730;11.110;2023-06-22T15:03:36;26.80;99.90
33739;DHT22;20063;51.730;11.110;2023-06-22T15:06:03;26.70;99.90
33739;DHT22;20063;51.730;11.110;2023-06-22T15:08:37;26.70;99.90
33739;DHT22;20063;51.730;11.110;2023-06-22T15:11:04;26.70;99.90
33739;DHT22;20063;51.730;11.110;2023-06-22T15:13:34;26.70;99.90
33739;DHT22;20063;51.730;11.110;2023-06-22T15:16:01;26.70;99.90
33739;DHT22;20063;51.730;11.110;2023-06-22T15:18:28;26.70;99.90
33739;DHT22;20063;51.730;11.110;2023-06-22T15:20:54;26.60;99.90
33739;DHT22;20063;51.730;11.110;2023-06-22T15:23:20;26.60;99.90
33739;DHT22;20063;51.730;11.110;2023-06-22T15:25:46;26.60;99.90